Rhapsody Of The Seas — C6UA2 — position and weather

sailwx.info

Track history (hours):
 
Tides and Currents Weather Stations Pressure Air Temp Water Temp Dewpoint Dewpoint Depression Visibility Wind Speed Wind Dir Waves Ship Positions

Rhapsody Of The Seas

Last reported at 2016-Jun-29 06:31 UTC. Time now 2016-Jun-29 07:30 UTC.
Position N 37°56' E 023°38'.

Type: Passenger vessel. MMSI: 311805000.

Date/timePositionNaut miles runAvg speedWind from/ knotsBaromVisibWave heightAir tempDewpointWater temp
2016-Jun-29 06:31N 37°56' E 023°38'0 0.0
2016-Jun-29 05:31N 37°56' E 023°38'0 0.0
2016-Jun-29 04:31N 37°56' E 023°38'0 0.0
2016-Jun-29 03:31N 37°56' E 023°38'0 0.0
2016-Jun-29 02:31N 37°56' E 023°38'1 1.4
2016-Jun-29 01:33N 37°56' E 023°36'1414.5
2016-Jun-29 00:33N 37°42' E 023°44'1515.2
2016-Jun-28 23:33N 37°32' E 023°58'2015.4
2016-Jun-28 22:16N 37°16' E 024°12'57 2.5
2016-Jun-27 23:23N 36°19' E 024°14'910.5
2016-Jun-27 22:33N 36°18' E 024°03'1010.4
2016-Jun-27 21:33N 36°19' E 023°50'1110.6
2016-Jun-27 20:33N 36°19' E 023°37'  
2016-Jun-24 22:34N 44°24' E 013°44'1514.0
2016-Jun-24 21:28N 44°37' E 013°32'2613.6
2016-Jun-24 19:33N 44°58' E 013°12'1313.4
2016-Jun-24 18:34N 45°07' E 012°58'1313.1
2016-Jun-24 17:34N 45°15' E 012°43'1313.1
2016-Jun-24 16:34N 45°24' E 012°29'7 7.2
2016-Jun-24 15:34N 45°26' E 012°19'1 0.6
2016-Jun-24 14:33N 45°26' E 012°19'0 0.0
2016-Jun-24 13:32N 45°26' E 012°19'0 0.0
2016-Jun-24 12:33N 45°26' E 012°19'0 0.0
2016-Jun-24 11:32N 45°26' E 012°19'0 0.0
2016-Jun-24 10:32N 45°26' E 012°19'0 0.0
2016-Jun-24 09:32N 45°26' E 012°19'0 0.0
2016-Jun-24 08:32N 45°26' E 012°19'0 0.0
2016-Jun-24 07:32N 45°26' E 012°19'0 0.0
2016-Jun-24 04:32N 45°26' E 012°19'0 0.0
2016-Jun-24 03:32N 45°26' E 012°19'0 0.0
2016-Jun-24 02:32N 45°26' E 012°19'0 0.0
2016-Jun-24 01:32N 45°26' E 012°19'0 0.0
2016-Jun-24 00:33N 45°26' E 012°19'0 0.0
2016-Jun-23 23:32N 45°26' E 012°19'0 0.0
2016-Jun-23 22:32N 45°26' E 012°19'0 0.0
2016-Jun-23 21:32N 45°26' E 012°19'0 0.0
2016-Jun-23 20:26N 45°26' E 012°19'0 0.0
2016-Jun-23 19:32N 45°26' E 012°19'0 0.0
2016-Jun-23 18:32N 45°26' E 012°19'0 0.0
2016-Jun-23 17:32N 45°26' E 012°19'0 0.0
2016-Jun-23 16:32N 45°26' E 012°19'0 0.0
2016-Jun-23 15:32N 45°26' E 012°19'0 0.0
2016-Jun-23 14:32N 45°26' E 012°19'0 0.0
2016-Jun-23 13:32N 45°26' E 012°19'0 0.0
2016-Jun-23 12:33N 45°26' E 012°19'3 2.9
2016-Jun-23 11:33N 45°26' E 012°23'1312.6
2016-Jun-23 10:33N 45°19' E 012°38'1515.5
2016-Jun-23 09:33N 45°10' E 012°55'1615.5
2016-Jun-23 08:33N 45°01' E 013°13'260 9.1
2016-Jun-22 04:08N 42°28' E 018°04'1115.8
2016-Jun-22 03:28N 42°17' E 018°07'1615.6
2016-Jun-22 02:25N 42°02' E 018°13'24915.7
2016-Jun-21 10:33N 38°06' E 020°01'1615.8
2016-Jun-21 09:33N 37°52' E 020°10'19014.6
2016-Jun-20 20:33N 36°20' E 023°37'  
Track history (hours):
 
Tides and Currents Weather Stations Pressure Air Temp Water Temp Dewpoint Dewpoint Depression Visibility Wind Speed Wind Dir Waves Ship Positions

Rhapsody Of The Seas

Last reported at 2016-Jun-29 06:31 UTC. Time now 2016-Jun-29 07:30 UTC.
Position N 37°56' E 023°38'.

Type: Passenger vessel. MMSI: 311805000.

Date/timePositionNaut miles runAvg speedWind from/ knotsBaromVisibWave heightAir tempDewpointWater temp
2016-Jun-29 06:31N 37°56' E 023°38'0 0.0
2016-Jun-29 05:31N 37°56' E 023°38'0 0.0
2016-Jun-29 04:31N 37°56' E 023°38'0 0.0
2016-Jun-29 03:31N 37°56' E 023°38'0 0.0
2016-Jun-29 02:31N 37°56' E 023°38'1 1.4
2016-Jun-29 01:33N 37°56' E 023°36'1414.5
2016-Jun-29 00:33N 37°42' E 023°44'1515.2
2016-Jun-28 23:33N 37°32' E 023°58'2015.4
2016-Jun-28 22:16N 37°16' E 024°12'57 2.5
2016-Jun-27 23:23N 36°19' E 024°14'910.5
2016-Jun-27 22:33N 36°18' E 024°03'1010.4
2016-Jun-27 21:33N 36°19' E 023°50'1110.6
2016-Jun-27 20:33N 36°19' E 023°37'  
2016-Jun-24 22:34N 44°24' E 013°44'1514.0
2016-Jun-24 21:28N 44°37' E 013°32'2613.6
2016-Jun-24 19:33N 44°58' E 013°12'1313.4
2016-Jun-24 18:34N 45°07' E 012°58'1313.1
2016-Jun-24 17:34N 45°15' E 012°43'1313.1
2016-Jun-24 16:34N 45°24' E 012°29'7 7.2
2016-Jun-24 15:34N 45°26' E 012°19'1 0.6
2016-Jun-24 14:33N 45°26' E 012°19'0 0.0
2016-Jun-24 13:32N 45°26' E 012°19'0 0.0
2016-Jun-24 12:33N 45°26' E 012°19'0 0.0
2016-Jun-24 11:32N 45°26' E 012°19'0 0.0
2016-Jun-24 10:32N 45°26' E 012°19'0 0.0
2016-Jun-24 09:32N 45°26' E 012°19'0 0.0
2016-Jun-24 08:32N 45°26' E 012°19'0 0.0
2016-Jun-24 07:32N 45°26' E 012°19'0 0.0
2016-Jun-24 04:32N 45°26' E 012°19'0 0.0
2016-Jun-24 03:32N 45°26' E 012°19'0 0.0
2016-Jun-24 02:32N 45°26' E 012°19'0 0.0
2016-Jun-24 01:32N 45°26' E 012°19'0 0.0
2016-Jun-24 00:33N 45°26' E 012°19'0 0.0
2016-Jun-23 23:32N 45°26' E 012°19'0 0.0
2016-Jun-23 22:32N 45°26' E 012°19'0 0.0
2016-Jun-23 21:32N 45°26' E 012°19'0 0.0
2016-Jun-23 20:26N 45°26' E 012°19'0 0.0
2016-Jun-23 19:32N 45°26' E 012°19'0 0.0
2016-Jun-23 18:32N 45°26' E 012°19'0 0.0
2016-Jun-23 17:32N 45°26' E 012°19'0 0.0
2016-Jun-23 16:32N 45°26' E 012°19'0 0.0
2016-Jun-23 15:32N 45°26' E 012°19'0 0.0
2016-Jun-23 14:32N 45°26' E 012°19'0 0.0
2016-Jun-23 13:32N 45°26' E 012°19'0 0.0
2016-Jun-23 12:33N 45°26' E 012°19'3 2.9
2016-Jun-23 11:33N 45°26' E 012°23'1312.6
2016-Jun-23 10:33N 45°19' E 012°38'1515.5
2016-Jun-23 09:33N 45°10' E 012°55'1615.5
2016-Jun-23 08:33N 45°01' E 013°13'260 9.1
2016-Jun-22 04:08N 42°28' E 018°04'1115.8
2016-Jun-22 03:28N 42°17' E 018°07'1615.6
2016-Jun-22 02:25N 42°02' E 018°13'24915.7
2016-Jun-21 10:33N 38°06' E 020°01'1615.8
2016-Jun-21 09:33N 37°52' E 020°10'19014.6
2016-Jun-20 20:33N 36°20' E 023°37'  

Dump ship's entire track history